sensor_id;sensor_type;location;lat;lon;timestamp;temperature;humidity
34574;DHT22;20809;49.594;8.734;2023-02-13T00:00:38;3.80;99.90
34574;DHT22;20809;49.594;8.734;2023-02-13T00:03:42;3.60;99.90
34574;DHT22;20809;49.594;8.734;2023-02-13T00:06:47;3.40;99.90
34574;DHT22;20809;49.594;8.734;2023-02-13T00:09:49;3.30;99.90
34574;DHT22;20809;49.594;8.734;2023-02-13T00:12:52;3.10;99.90
34574;DHT22;20809;49.594;8.734;2023-02-13T00:15:59;3.00;99.90
34574;DHT22;20809;49.594;8.734;2023-02-13T00:19:03;3.00;99.90
34574;DHT22;20809;49.594;8.734;2023-02-13T00:22:06;3.00;99.90
34574;DHT22;20809;49.594;8.734;2023-02-13T00:25:16;2.90;99.90
34574;DHT22;20809;49.594;8.734;2023-02-13T00:28:20;2.90;99.90
34574;DHT22;20809;49.594;8.734;2023-02-13T00:31:23;3.00;99.90
34574;DHT22;20809;49.594;8.734;2023-02-13T00:34:23;3.00;99.90
34574;DHT22;20809;49.594;8.734;2023-02-13T00:37:26;3.10;99.90
34574;DHT22;20809;49.594;8.734;2023-02-13T00:40:30;3.10;99.90
34574;DHT22;20809;49.594;8.734;2023-02-13T00:43:33;3.20;99.90
34574;DHT22;20809;49.594;8.734;2023-02-13T00:46:39;3.20;99.90
34574;DHT22;20809;49.594;8.734;2023-02-13T00:49:42;3.30;99.90
34574;DHT22;20809;49.594;8.734;2023-02-13T00:52:44;3.30;99.90
34574;DHT22;20809;49.594;8.734;2023-02-13T00:55:47;3.30;99.90
34574;DHT22;20809;49.594;8.734;2023-02-13T00:58:50;3.30;99.90
34574;DHT22;20809;49.594;8.734;2023-02-13T01:01:56;3.30;99.90
34574;DHT22;20809;49.594;8.734;2023-02-13T01:04:59;3.20;99.90
34574;DHT22;20809;49.594;8.734;2023-02-13T01:08:02;3.10;99.90
34574;DHT22;20809;49.594;8.734;2023-02-13T01:11:05;3.00;99.90
34574;DHT22;20809;49.594;8.734;2023-02-13T01:14:17;3.00;99.90
34574;DHT22;20809;49.594;8.734;2023-02-13T01:17:20;3.00;99.90
34574;DHT22;20809;49.594;8.734;2023-02-13T01:20:23;2.90;99.90
34574;DHT22;20809;49.594;8.734;2023-02-13T01:23:34;3.00;99.90
34574;DHT22;20809;49.594;8.734;2023-02-13T01:26:36;3.00;99.90
34574;DHT22;20809;49.594;8.734;2023-02-13T01:29:38;3.00;99.90
34574;DHT22;20809;49.594;8.734;2023-02-13T01:32:44;3.10;99.90
34574;DHT22;20809;49.594;8.734;2023-02-13T01:35:47;3.30;99.90
34574;DHT22;20809;49.594;8.734;2023-02-13T01:38:53;3.20;99.90
34574;DHT22;20809;49.594;8.734;2023-02-13T01:41:58;3.20;99.90
34574;DHT22;20809;49.594;8.734;2023-02-13T01:45:05;3.10;99.90
34574;DHT22;20809;49.594;8.734;2023-02-13T01:48:18;3.00;99.90
34574;DHT22;20809;49.594;8.734;2023-02-13T01:51:26;2.90;99.90
34574;DHT22;20809;49.594;8.734;2023-02-13T01:54:30;2.90;99.90
34574;DHT22;20809;49.594;8.734;2023-02-13T02:00:09;2.70;99.90
34574;DHT22;20809;49.594;8.734;2023-02-13T02:03:20;2.40;99.90
34574;DHT22;20809;49.594;8.734;2023-02-13T02:06:27;2.40;99.90
34574;DHT22;20809;49.594;8.734;2023-02-13T02:09:34;2.40;99.90
34574;DHT22;20809;49.594;8.734;2023-02-13T02:15:57;2.30;99.90
34574;DHT22;20809;49.594;8.734;2023-02-13T02:19:03;2.40;99.90
34574;DHT22;20809;49.594;8.734;2023-02-13T02:41:59;1.20;99.90
34574;DHT22;20809;49.594;8.734;2023-02-13T02:46:15;1.10;99.90
34574;DHT22;20809;49.594;8.734;2023-02-13T02:49:12;1.00;99.90
34574;DHT22;20809;49.594;8.734;2023-02-13T02:53:05;0.80;99.90
34574;DHT22;20809;49.594;8.734;2023-02-13T02:56:45;0.70;99.90
34574;DHT22;20809;49.594;8.734;2023-02-13T02:59:51;0.60;99.90
34574;DHT22;20809;49.594;8.734;2023-02-13T03:03:21;0.40;99.90
34574;DHT22;20809;49.594;8.734;2023-02-13T03:06:56;0.30;99.90
34574;DHT22;20809;49.594;8.734;2023-02-13T03:10:27;0.30;99.90
34574;DHT22;20809;49.594;8.734;2023-02-13T03:13:50;0.20;99.90
34574;DHT22;20809;49.594;8.734;2023-02-13T03:16:56;0.30;99.90
34574;DHT22;20809;49.594;8.734;2023-02-13T03:24:14;0.30;99.90
34574;DHT22;20809;49.594;8.734;2023-02-13T03:31:29;0.60;99.90
34574;DHT22;20809;49.594;8.734;2023-02-13T03:34:37;0.80;99.90
34574;DHT22;20809;49.594;8.734;2023-02-13T03:38:16;0.80;99.90
34574;DHT22;20809;49.594;8.734;2023-02-13T03:41:35;0.70;99.90
34574;DHT22;20809;49.594;8.734;2023-02-13T03:44:54;0.80;99.90
34574;DHT22;20809;49.594;8.734;2023-02-13T03:48:23;0.80;99.90
34574;DHT22;20809;49.594;8.734;2023-02-13T03:52:04;0.70;99.90
34574;DHT22;20809;49.594;8.734;2023-02-13T03:55:10;0.50;99.90
34574;DHT22;20809;49.594;8.734;2023-02-13T03:58:38;0.30;99.90
34574;DHT22;20809;49.594;8.734;2023-02-13T04:02:12;0.10;99.90
34574;DHT22;20809;49.594;8.734;2023-02-13T04:05:21;-0.10;99.90
34574;DHT22;20809;49.594;8.734;2023-02-13T04:08:26;-0.20;99.90
34574;DHT22;20809;49.594;8.734;2023-02-13T04:15:03;-0.20;99.90
34574;DHT22;20809;49.594;8.734;2023-02-13T04:18:29;-0.10;99.90
34574;DHT22;20809;49.594;8.734;2023-02-13T04:21:35;0.00;99.90
34574;DHT22;20809;49.594;8.734;2023-02-13T04:24:38;0.00;99.90
34574;DHT22;20809;49.594;8.734;2023-02-13T04:27:41;0.10;99.90
34574;DHT22;20809;49.594;8.734;2023-02-13T04:30:47;0.10;99.90
34574;DHT22;20809;49.594;8.734;2023-02-13T04:33:54;0.10;99.90
34574;DHT22;20809;49.594;8.734;2023-02-13T04:36:57;0.00;99.90
34574;DHT22;20809;49.594;8.734;2023-02-13T04:39:58;0.00;99.90
34574;DHT22;20809;49.594;8.734;2023-02-13T04:43:00;-0.10;99.90
34574;DHT22;20809;49.594;8.734;2023-02-13T04:46:03;-0.20;99.90
34574;DHT22;20809;49.594;8.734;2023-02-13T04:49:05;-0.40;99.90
34574;DHT22;20809;49.594;8.734;2023-02-13T04:52:08;-0.40;99.90
34574;DHT22;20809;49.594;8.734;2023-02-13T04:55:09;-0.50;99.90
34574;DHT22;20809;49.594;8.734;2023-02-13T04:58:15;-0.50;99.90
34574;DHT22;20809;49.594;8.734;2023-02-13T05:01:18;-0.40;99.90
34574;DHT22;20809;49.594;8.734;2023-02-13T05:04:20;-0.20;99.90
34574;DHT22;20809;49.594;8.734;2023-02-13T05:07:23;-0.10;99.90
34574;DHT22;20809;49.594;8.734;2023-02-13T05:10:27;0.00;99.90
34574;DHT22;20809;49.594;8.734;2023-02-13T05:13:31;0.00;99.90
34574;DHT22;20809;49.594;8.734;2023-02-13T05:16:35;0.00;99.90
34574;DHT22;20809;49.594;8.734;2023-02-13T05:19:38;0.00;99.90
34574;DHT22;20809;49.594;8.734;2023-02-13T05:22:55;-0.10;99.90
34574;DHT22;20809;49.594;8.734;2023-02-13T05:26:15;-0.10;99.90
34574;DHT22;20809;49.594;8.734;2023-02-13T05:29:22;-0.20;99.90
34574;DHT22;20809;49.594;8.734;2023-02-13T05:32:23;-0.20;99.90
34574;DHT22;20809;49.594;8.734;2023-02-13T05:35:25;-0.40;99.90
34574;DHT22;20809;49.594;8.734;2023-02-13T05:38:26;-0.50;99.90
34574;DHT22;20809;49.594;8.734;2023-02-13T05:41:27;-0.50;99.90
34574;DHT22;20809;49.594;8.734;2023-02-13T05:44:29;-0.50;99.90
34574;DHT22;20809;49.594;8.734;2023-02-13T05:47:33;-0.50;99.90
34574;DHT22;20809;49.594;8.734;2023-02-13T05:50:38;-0.60;99.90
34574;DHT22;20809;49.594;8.734;2023-02-13T05:53:45;-0.60;99.90
34574;DHT22;20809;49.594;8.734;2023-02-13T05:56:50;-0.50;99.90
34574;DHT22;20809;49.594;8.734;2023-02-13T05:59:54;-0.40;99.90
34574;DHT22;20809;49.594;8.734;2023-02-13T06:02:56;-0.30;99.90
34574;DHT22;20809;49.594;8.734;2023-02-13T06:06:00;-0.30;99.90
34574;DHT22;20809;49.594;8.734;2023-02-13T06:09:03;-0.20;99.90
34574;DHT22;20809;49.594;8.734;2023-02-13T06:12:06;-0.30;99.90
34574;DHT22;20809;49.594;8.734;2023-02-13T06:15:13;-0.50;99.90
34574;DHT22;20809;49.594;8.734;2023-02-13T06:18:16;-0.60;99.90
34574;DHT22;20809;49.594;8.734;2023-02-13T06:21:23;-0.80;99.90
34574;DHT22;20809;49.594;8.734;2023-02-13T06:24:26;-0.90;99.90
34574;DHT22;20809;49.594;8.734;2023-02-13T06:27:28;-1.00;99.90
34574;DHT22;20809;49.594;8.734;2023-02-13T06:30:30;-1.10;99.90
34574;DHT22;20809;49.594;8.734;2023-02-13T06:33:35;-1.20;99.90
34574;DHT22;20809;49.594;8.734;2023-02-13T06:36:40;-1.20;99.90
34574;DHT22;20809;49.594;8.734;2023-02-13T06:39:44;-1.30;99.90
34574;DHT22;20809;49.594;8.734;2023-02-13T06:42:48;-1.30;99.90
34574;DHT22;20809;49.594;8.734;2023-02-13T06:45:55;-1.30;99.90
34574;DHT22;20809;49.594;8.734;2023-02-13T06:49:01;-1.30;99.90
34574;DHT22;20809;49.594;8.734;2023-02-13T06:52:06;-1.30;99.90
34574;DHT22;20809;49.594;8.734;2023-02-13T06:55:10;-1.20;99.90
34574;DHT22;20809;49.594;8.734;2023-02-13T06:58:12;-1.10;99.90
34574;DHT22;20809;49.594;8.734;2023-02-13T07:01:17;-1.00;99.90
34574;DHT22;20809;49.594;8.734;2023-02-13T07:04:20;-0.90;99.90
34574;DHT22;20809;49.594;8.734;2023-02-13T07:07:22;-0.70;99.90
34574;DHT22;20809;49.594;8.734;2023-02-13T07:10:27;-0.70;99.90
34574;DHT22;20809;49.594;8.734;2023-02-13T07:13:34;-0.70;99.90
34574;DHT22;20809;49.594;8.734;2023-02-13T07:16:38;-0.70;99.90
34574;DHT22;20809;49.594;8.734;2023-02-13T07:19:42;-0.70;99.90
34574;DHT22;20809;49.594;8.734;2023-02-13T07:22:45;-0.60;99.90
34574;DHT22;20809;49.594;8.734;2023-02-13T07:25:47;-0.50;99.90
34574;DHT22;20809;49.594;8.734;2023-02-13T07:28:51;-0.50;99.90
34574;DHT22;20809;49.594;8.734;2023-02-13T07:31:58;-0.40;99.90
34574;DHT22;20809;49.594;8.734;2023-02-13T07:35:03;-0.40;99.90
34574;DHT22;20809;49.594;8.734;2023-02-13T07:38:07;-0.30;99.90
34574;DHT22;20809;49.594;8.734;2023-02-13T07:41:11;-0.20;99.90
34574;DHT22;20809;49.594;8.734;2023-02-13T07:44:14;-0.10;99.90
34574;DHT22;20809;49.594;8.734;2023-02-13T07:47:20;-0.10;99.90
34574;DHT22;20809;49.594;8.734;2023-02-13T07:50:24;0.00;99.90
34574;DHT22;20809;49.594;8.734;2023-02-13T07:53:31;0.10;99.90
34574;DHT22;20809;49.594;8.734;2023-02-13T07:56:34;0.20;99.90
34574;DHT22;20809;49.594;8.734;2023-02-13T07:59:39;0.30;99.90
34574;DHT22;20809;49.594;8.734;2023-02-13T08:02:43;0.60;99.90
34574;DHT22;20809;49.594;8.734;2023-02-13T08:05:48;0.70;99.90
34574;DHT22;20809;49.594;8.734;2023-02-13T08:08:53;1.00;99.90
34574;DHT22;20809;49.594;8.734;2023-02-13T08:12:18;1.40;99.90
34574;DHT22;20809;49.594;8.734;2023-02-13T08:15:23;1.90;99.90
34574;DHT22;20809;49.594;8.734;2023-02-13T08:18:34;2.00;99.90
34574;DHT22;20809;49.594;8.734;2023-02-13T08:21:35;1.90;99.90
34574;DHT22;20809;49.594;8.734;2023-02-13T08:24:43;1.90;99.90
34574;DHT22;20809;49.594;8.734;2023-02-13T08:27:50;1.80;99.90
34574;DHT22;20809;49.594;8.734;2023-02-13T08:30:54;1.80;99.90
34574;DHT22;20809;49.594;8.734;2023-02-13T08:34:00;1.90;99.90
34574;DHT22;20809;49.594;8.734;2023-02-13T08:37:04;2.00;99.90
34574;DHT22;20809;49.594;8.734;2023-02-13T08:40:09;2.10;99.90
34574;DHT22;20809;49.594;8.734;2023-02-13T08:43:13;2.20;99.90
34574;DHT22;20809;49.594;8.734;2023-02-13T08:46:18;2.30;99.90
34574;DHT22;20809;49.594;8.734;2023-02-13T08:49:24;2.40;99.90
34574;DHT22;20809;49.594;8.734;2023-02-13T08:52:29;2.60;99.90
34574;DHT22;20809;49.594;8.734;2023-02-13T08:55:34;2.80;99.90
34574;DHT22;20809;49.594;8.734;2023-02-13T08:58:38;3.00;99.90
34574;DHT22;20809;49.594;8.734;2023-02-13T09:01:42;3.20;99.90
34574;DHT22;20809;49.594;8.734;2023-02-13T09:04:46;3.30;99.90
34574;DHT22;20809;49.594;8.734;2023-02-13T09:07:51;3.50;99.90
34574;DHT22;20809;49.594;8.734;2023-02-13T09:11:03;3.70;99.90
34574;DHT22;20809;49.594;8.734;2023-02-13T09:14:09;3.90;99.90
34574;DHT22;20809;49.594;8.734;2023-02-13T09:17:15;4.10;99.90
34574;DHT22;20809;49.594;8.734;2023-02-13T09:20:19;4.30;99.90
34574;DHT22;20809;49.594;8.734;2023-02-13T09:23:22;4.50;99.90
34574;DHT22;20809;49.594;8.734;2023-02-13T09:26:24;4.60;99.90
34574;DHT22;20809;49.594;8.734;2023-02-13T09:29:26;4.80;99.90
34574;DHT22;20809;49.594;8.734;2023-02-13T09:32:33;4.90;99.90
34574;DHT22;20809;49.594;8.734;2023-02-13T09:35:36;5.10;99.90
34574;DHT22;20809;49.594;8.734;2023-02-13T09:38:37;5.20;99.90
34574;DHT22;20809;49.594;8.734;2023-02-13T09:41:43;5.50;99.90
34574;DHT22;20809;49.594;8.734;2023-02-13T09:44:51;5.60;99.90
34574;DHT22;20809;49.594;8.734;2023-02-13T09:47:54;5.80;99.90
34574;DHT22;20809;49.594;8.734;2023-02-13T09:50:56;6.10;99.90
34574;DHT22;20809;49.594;8.734;2023-02-13T09:54:02;6.40;99.90
34574;DHT22;20809;49.594;8.734;2023-02-13T10:00:38;6.80;99.90
34574;DHT22;20809;49.594;8.734;2023-02-13T10:07:15;7.30;99.90
34574;DHT22;20809;49.594;8.734;2023-02-13T10:10:29;7.50;99.90
34574;DHT22;20809;49.594;8.734;2023-02-13T10:17:20;7.80;99.90
34574;DHT22;20809;49.594;8.734;2023-02-13T10:26:38;8.30;99.90
34574;DHT22;20809;49.594;8.734;2023-02-13T10:36:29;8.80;99.90
34574;DHT22;20809;49.594;8.734;2023-02-13T10:39:33;8.90;99.90
34574;DHT22;20809;49.594;8.734;2023-02-13T10:42:43;9.10;99.90
34574;DHT22;20809;49.594;8.734;2023-02-13T10:45:54;9.30;99.90
34574;DHT22;20809;49.594;8.734;2023-02-13T10:52:55;9.50;99.90
34574;DHT22;20809;49.594;8.734;2023-02-13T10:56:18;9.60;99.90
34574;DHT22;20809;49.594;8.734;2023-02-13T11:02:38;9.90;99.90
34574;DHT22;20809;49.594;8.734;2023-02-13T11:05:42;10.10;99.90
34574;DHT22;20809;49.594;8.734;2023-02-13T11:08:46;10.20;99.90
34574;DHT22;20809;49.594;8.734;2023-02-13T11:11:48;10.20;99.90
34574;DHT22;20809;49.594;8.734;2023-02-13T11:14:58;10.30;99.90
34574;DHT22;20809;49.594;8.734;2023-02-13T11:18:14;10.40;99.90
34574;DHT22;20809;49.594;8.734;2023-02-13T11:21:22;10.50;99.90
34574;DHT22;20809;49.594;8.734;2023-02-13T11:24:35;10.60;99.90
34574;DHT22;20809;49.594;8.734;2023-02-13T11:27:39;10.70;99.90
34574;DHT22;20809;49.594;8.734;2023-02-13T11:30:41;10.90;99.90
34574;DHT22;20809;49.594;8.734;2023-02-13T11:33:43;10.90;99.90
34574;DHT22;20809;49.594;8.734;2023-02-13T11:36:45;11.00;99.90
34574;DHT22;20809;49.594;8.734;2023-02-13T11:39:55;11.10;99.90
34574;DHT22;20809;49.594;8.734;2023-02-13T11:42:57;11.20;99.90
34574;DHT22;20809;49.594;8.734;2023-02-13T11:52:32;11.30;99.90
34574;DHT22;20809;49.594;8.734;2023-02-13T11:55:40;11.40;99.90
34574;DHT22;20809;49.594;8.734;2023-02-13T11:58:46;11.50;99.90
34574;DHT22;20809;49.594;8.734;2023-02-13T12:02:10;11.50;99.90
34574;DHT22;20809;49.594;8.734;2023-02-13T12:05:16;11.60;99.90
34574;DHT22;20809;49.594;8.734;2023-02-13T12:08:18;11.60;99.90
34574;DHT22;20809;49.594;8.734;2023-02-13T12:11:36;11.70;99.90
34574;DHT22;20809;49.594;8.734;2023-02-13T12:14:44;11.80;99.90
34574;DHT22;20809;49.594;8.734;2023-02-13T12:18:15;11.90;99.90
34574;DHT22;20809;49.594;8.734;2023-02-13T12:28:09;12.10;99.90
34574;DHT22;20809;49.594;8.734;2023-02-13T12:31:47;12.10;99.90
34574;DHT22;20809;49.594;8.734;2023-02-13T12:35:00;12.20;99.90
34574;DHT22;20809;49.594;8.734;2023-02-13T12:45:13;12.30;99.90
34574;DHT22;20809;49.594;8.734;2023-02-13T13:05:35;12.50;99.90
34574;DHT22;20809;49.594;8.734;2023-02-13T13:18:29;12.60;99.90
34574;DHT22;20809;49.594;8.734;2023-02-13T13:28:47;12.80;99.90
34574;DHT22;20809;49.594;8.734;2023-02-13T13:31:58;12.90;99.90
34574;DHT22;20809;49.594;8.734;2023-02-13T13:35:03;12.90;99.90
34574;DHT22;20809;49.594;8.734;2023-02-13T13:44:49;13.10;99.90
34574;DHT22;20809;49.594;8.734;2023-02-13T13:51:19;13.30;99.90
34574;DHT22;20809;49.594;8.734;2023-02-13T13:54:23;13.30;99.90
34574;DHT22;20809;49.594;8.734;2023-02-13T13:57:25;13.30;99.90
34574;DHT22;20809;49.594;8.734;2023-02-13T14:00:28;13.30;99.90
34574;DHT22;20809;49.594;8.734;2023-02-13T14:03:36;13.40;99.90
34574;DHT22;20809;49.594;8.734;2023-02-13T14:09:47;13.30;99.90
34574;DHT22;20809;49.594;8.734;2023-02-13T14:15:55;13.30;99.90
34574;DHT22;20809;49.594;8.734;2023-02-13T14:18:56;13.40;99.90
34574;DHT22;20809;49.594;8.734;2023-02-13T14:22:41;13.40;99.90
34574;DHT22;20809;49.594;8.734;2023-02-13T14:25:41;13.50;99.90
34574;DHT22;20809;49.594;8.734;2023-02-13T14:32:20;13.40;99.90
34574;DHT22;20809;49.594;8.734;2023-02-13T14:35:27;13.30;99.90
34574;DHT22;20809;49.594;8.734;2023-02-13T14:38:30;13.30;99.90
34574;DHT22;20809;49.594;8.734;2023-02-13T14:44:49;13.30;99.90
34574;DHT22;20809;49.594;8.734;2023-02-13T14:47:52;13.30;99.90
34574;DHT22;20809;49.594;8.734;2023-02-13T14:50:55;13.30;99.90
34574;DHT22;20809;49.594;8.734;2023-02-13T14:54:12;13.40;99.90
34574;DHT22;20809;49.594;8.734;2023-02-13T15:00:27;13.30;99.90
34574;DHT22;20809;49.594;8.734;2023-02-13T15:06:42;13.30;99.90
34574;DHT22;20809;49.594;8.734;2023-02-13T15:09:59;13.20;99.90
34574;DHT22;20809;49.594;8.734;2023-02-13T15:13:02;13.20;99.90
34574;DHT22;20809;49.594;8.734;2023-02-13T15:16:10;13.10;99.90
34574;DHT22;20809;49.594;8.734;2023-02-13T15:19:18;12.90;99.90
34574;DHT22;20809;49.594;8.734;2023-02-13T15:22:28;12.80;99.90
34574;DHT22;20809;49.594;8.734;2023-02-13T15:25:38;12.60;99.90
34574;DHT22;20809;49.594;8.734;2023-02-13T15:28:39;12.50;99.90
34574;DHT22;20809;49.594;8.734;2023-02-13T15:31:40;12.50;99.90
34574;DHT22;20809;49.594;8.734;2023-02-13T15:34:45;12.40;99.90
34574;DHT22;20809;49.594;8.734;2023-02-13T15:37:46;12.30;99.90
34574;DHT22;20809;49.594;8.734;2023-02-13T15:40:49;12.20;99.90
34574;DHT22;20809;49.594;8.734;2023-02-13T15:43:55;12.20;99.90
34574;DHT22;20809;49.594;8.734;2023-02-13T15:47:24;12.00;99.90
34574;DHT22;20809;49.594;8.734;2023-02-13T15:50:32;11.90;99.90
34574;DHT22;20809;49.594;8.734;2023-02-13T15:53:33;11.80;99.90
34574;DHT22;20809;49.594;8.734;2023-02-13T15:56:35;11.60;99.90
34574;DHT22;20809;49.594;8.734;2023-02-13T15:59:38;11.50;99.90
34574;DHT22;20809;49.594;8.734;2023-02-13T16:02:42;11.40;99.90
34574;DHT22;20809;49.594;8.734;2023-02-13T16:05:46;11.20;99.90
34574;DHT22;20809;49.594;8.734;2023-02-13T16:08:55;11.10;99.90
34574;DHT22;20809;49.594;8.734;2023-02-13T16:12:03;11.00;99.90
34574;DHT22;20809;49.594;8.734;2023-02-13T16:15:05;10.80;99.90
34574;DHT22;20809;49.594;8.734;2023-02-13T16:18:17;10.70;99.90
34574;DHT22;20809;49.594;8.734;2023-02-13T16:21:26;10.70;99.90
34574;DHT22;20809;49.594;8.734;2023-02-13T16:24:29;10.60;99.90
34574;DHT22;20809;49.594;8.734;2023-02-13T16:27:30;10.40;99.90
34574;DHT22;20809;49.594;8.734;2023-02-13T16:30:35;10.20;99.90
34574;DHT22;20809;49.594;8.734;2023-02-13T16:33:38;9.80;99.90
34574;DHT22;20809;49.594;8.734;2023-02-13T16:36:41;9.50;99.90
34574;DHT22;20809;49.594;8.734;2023-02-13T16:39:42;9.30;99.90
34574;DHT22;20809;49.594;8.734;2023-02-13T16:42:43;9.10;99.90
34574;DHT22;20809;49.594;8.734;2023-02-13T16:45:44;8.90;99.90
34574;DHT22;20809;49.594;8.734;2023-02-13T16:52:19;8.60;99.90
34574;DHT22;20809;49.594;8.734;2023-02-13T16:55:21;8.40;99.90
34574;DHT22;20809;49.594;8.734;2023-02-13T16:58:22;8.20;99.90
34574;DHT22;20809;49.594;8.734;2023-02-13T17:01:23;8.10;99.90
34574;DHT22;20809;49.594;8.734;2023-02-13T17:04:24;7.90;99.90
34574;DHT22;20809;49.594;8.734;2023-02-13T17:07:28;7.80;99.90
34574;DHT22;20809;49.594;8.734;2023-02-13T17:10:32;7.60;99.90
34574;DHT22;20809;49.594;8.734;2023-02-13T17:13:34;7.50;99.90
34574;DHT22;20809;49.594;8.734;2023-02-13T17:16:35;7.30;99.90
34574;DHT22;20809;49.594;8.734;2023-02-13T17:19:36;7.20;99.90
34574;DHT22;20809;49.594;8.734;2023-02-13T17:22:41;7.10;99.90
34574;DHT22;20809;49.594;8.734;2023-02-13T17:25:43;7.00;99.90
34574;DHT22;20809;49.594;8.734;2023-02-13T17:28:49;6.90;99.90
34574;DHT22;20809;49.594;8.734;2023-02-13T17:31:54;6.80;99.90
34574;DHT22;20809;49.594;8.734;2023-02-13T17:34:56;6.60;99.90
34574;DHT22;20809;49.594;8.734;2023-02-13T17:37:57;6.50;99.90
34574;DHT22;20809;49.594;8.734;2023-02-13T17:40:58;6.30;99.90
34574;DHT22;20809;49.594;8.734;2023-02-13T17:44:00;6.30;99.90
34574;DHT22;20809;49.594;8.734;2023-02-13T17:47:01;6.20;99.90
34574;DHT22;20809;49.594;8.734;2023-02-13T17:50:05;6.00;99.90
34574;DHT22;20809;49.594;8.734;2023-02-13T17:56:22;5.80;99.90
34574;DHT22;20809;49.594;8.734;2023-02-13T17:59:24;5.70;99.90
34574;DHT22;20809;49.594;8.734;2023-02-13T18:02:28;5.50;99.90
34574;DHT22;20809;49.594;8.734;2023-02-13T18:05:29;5.50;99.90
34574;DHT22;20809;49.594;8.734;2023-02-13T18:08:35;5.50;99.90
34574;DHT22;20809;49.594;8.734;2023-02-13T18:11:37;5.50;99.90
34574;DHT22;20809;49.594;8.734;2023-02-13T18:14:38;5.40;99.90
34574;DHT22;20809;49.594;8.734;2023-02-13T18:17:40;5.40;99.90
34574;DHT22;20809;49.594;8.734;2023-02-13T18:20:42;5.40;99.90
34574;DHT22;20809;49.594;8.734;2023-02-13T18:23:44;5.40;99.90
34574;DHT22;20809;49.594;8.734;2023-02-13T18:26:46;5.50;99.90
34574;DHT22;20809;49.594;8.734;2023-02-13T18:29:50;5.40;99.90
34574;DHT22;20809;49.594;8.734;2023-02-13T18:32:53;5.30;99.90
34574;DHT22;20809;49.594;8.734;2023-02-13T18:36:01;5.20;99.90
34574;DHT22;20809;49.594;8.734;2023-02-13T18:39:03;5.00;99.90
34574;DHT22;20809;49.594;8.734;2023-02-13T18:42:05;4.90;99.90
34574;DHT22;20809;49.594;8.734;2023-02-13T18:45:07;4.70;99.90
34574;DHT22;20809;49.594;8.734;2023-02-13T18:48:08;4.60;99.90
34574;DHT22;20809;49.594;8.734;2023-02-13T18:51:10;4.60;99.90
34574;DHT22;20809;49.594;8.734;2023-02-13T18:54:14;4.50;99.90
34574;DHT22;20809;49.594;8.734;2023-02-13T18:57:17;4.40;99.90
34574;DHT22;20809;49.594;8.734;2023-02-13T19:00:24;4.50;99.90
34574;DHT22;20809;49.594;8.734;2023-02-13T19:03:26;4.50;99.90
34574;DHT22;20809;49.594;8.734;2023-02-13T19:06:30;4.60;99.90
34574;DHT22;20809;49.594;8.734;2023-02-13T19:12:44;4.50;99.90
34574;DHT22;20809;49.594;8.734;2023-02-13T19:15:45;4.50;99.90
34574;DHT22;20809;49.594;8.734;2023-02-13T19:18:50;4.60;99.90
34574;DHT22;20809;49.594;8.734;2023-02-13T19:21:52;4.50;99.90
34574;DHT22;20809;49.594;8.734;2023-02-13T19:24:56;4.60;99.90
34574;DHT22;20809;49.594;8.734;2023-02-13T19:27:58;4.60;99.90
34574;DHT22;20809;49.594;8.734;2023-02-13T19:31:07;4.60;99.90
34574;DHT22;20809;49.594;8.734;2023-02-13T19:34:08;4.50;99.90
34574;DHT22;20809;49.594;8.734;2023-02-13T19:37:09;4.60;99.90
34574;DHT22;20809;49.594;8.734;2023-02-13T19:40:11;4.70;99.90
34574;DHT22;20809;49.594;8.734;2023-02-13T19:43:13;4.80;99.90
34574;DHT22;20809;49.594;8.734;2023-02-13T19:46:16;4.90;99.90
34574;DHT22;20809;49.594;8.734;2023-02-13T19:49:17;5.00;99.90
34574;DHT22;20809;49.594;8.734;2023-02-13T19:52:20;5.20;99.90
34574;DHT22;20809;49.594;8.734;2023-02-13T19:55:21;5.20;99.90
34574;DHT22;20809;49.594;8.734;2023-02-13T19:58:24;5.20;99.90
34574;DHT22;20809;49.594;8.734;2023-02-13T20:01:26;5.10;99.90
34574;DHT22;20809;49.594;8.734;2023-02-13T20:04:31;5.20;99.90
34574;DHT22;20809;49.594;8.734;2023-02-13T20:07:36;5.20;99.90
34574;DHT22;20809;49.594;8.734;2023-02-13T20:10:37;5.20;99.90
34574;DHT22;20809;49.594;8.734;2023-02-13T20:13:45;5.20;99.90
34574;DHT22;20809;49.594;8.734;2023-02-13T20:16:46;5.20;99.90
34574;DHT22;20809;49.594;8.734;2023-02-13T20:19:48;5.20;99.90
34574;DHT22;20809;49.594;8.734;2023-02-13T20:22:50;5.10;99.90
34574;DHT22;20809;49.594;8.734;2023-02-13T20:25:51;5.10;99.90
34574;DHT22;20809;49.594;8.734;2023-02-13T20:28:52;5.10;99.90
34574;DHT22;20809;49.594;8.734;2023-02-13T20:31:59;4.80;99.90
34574;DHT22;20809;49.594;8.734;2023-02-13T20:34:59;4.50;99.90
34574;DHT22;20809;49.594;8.734;2023-02-13T20:38:03;4.40;99.90
34574;DHT22;20809;49.594;8.734;2023-02-13T20:41:11;4.30;99.90
34574;DHT22;20809;49.594;8.734;2023-02-13T20:44:16;4.10;99.90
34574;DHT22;20809;49.594;8.734;2023-02-13T20:47:21;4.00;99.90
34574;DHT22;20809;49.594;8.734;2023-02-13T20:50:23;3.90;99.90
34574;DHT22;20809;49.594;8.734;2023-02-13T20:53:24;3.80;99.90
34574;DHT22;20809;49.594;8.734;2023-02-13T20:56:26;3.60;99.90
34574;DHT22;20809;49.594;8.734;2023-02-13T20:59:30;3.50;99.90
34574;DHT22;20809;49.594;8.734;2023-02-13T21:02:32;3.20;99.90
34574;DHT22;20809;49.594;8.734;2023-02-13T21:05:33;3.10;99.90
34574;DHT22;20809;49.594;8.734;2023-02-13T21:08:34;3.10;99.90
34574;DHT22;20809;49.594;8.734;2023-02-13T21:11:41;3.00;99.90
34574;DHT22;20809;49.594;8.734;2023-02-13T21:14:43;2.80;99.90
34574;DHT22;20809;49.594;8.734;2023-02-13T21:17:47;2.60;99.90
34574;DHT22;20809;49.594;8.734;2023-02-13T21:20:48;2.50;99.90
34574;DHT22;20809;49.594;8.734;2023-02-13T21:23:57;2.40;99.90
34574;DHT22;20809;49.594;8.734;2023-02-13T21:26:58;2.30;99.90
34574;DHT22;20809;49.594;8.734;2023-02-13T21:30:00;2.20;99.90
34574;DHT22;20809;49.594;8.734;2023-02-13T21:33:04;2.20;99.90
34574;DHT22;20809;49.594;8.734;2023-02-13T21:36:07;2.30;99.90
34574;DHT22;20809;49.594;8.734;2023-02-13T21:39:10;2.50;99.90
34574;DHT22;20809;49.594;8.734;2023-02-13T21:42:11;2.60;99.90
34574;DHT22;20809;49.594;8.734;2023-02-13T21:45:12;2.80;99.90
34574;DHT22;20809;49.594;8.734;2023-02-13T21:48:13;3.00;99.90
34574;DHT22;20809;49.594;8.734;2023-02-13T21:51:17;2.90;99.90
34574;DHT22;20809;49.594;8.734;2023-02-13T21:54:19;2.80;99.90
34574;DHT22;20809;49.594;8.734;2023-02-13T21:57:23;2.60;99.90
34574;DHT22;20809;49.594;8.734;2023-02-13T22:00:27;2.40;99.90
34574;DHT22;20809;49.594;8.734;2023-02-13T22:03:30;2.10;99.90
34574;DHT22;20809;49.594;8.734;2023-02-13T22:06:38;1.90;99.90
34574;DHT22;20809;49.594;8.734;2023-02-13T22:09:41;1.70;99.90
34574;DHT22;20809;49.594;8.734;2023-02-13T22:12:43;1.60;99.90
34574;DHT22;20809;49.594;8.734;2023-02-13T22:15:44;1.60;99.90
34574;DHT22;20809;49.594;8.734;2023-02-13T22:18:45;1.50;99.90
34574;DHT22;20809;49.594;8.734;2023-02-13T22:21:48;1.30;99.90
34574;DHT22;20809;49.594;8.734;2023-02-13T22:24:50;1.30;99.90
34574;DHT22;20809;49.594;8.734;2023-02-13T22:27:52;1.30;99.90